createdAt,value
2023-05-05T00:02:41.836Z,81.30
2023-05-05T00:07:45.938Z,81.30
2023-05-05T00:12:50.445Z,82.40
2023-05-05T00:17:56.208Z,80.30
2023-05-05T00:23:00.240Z,81.30
2023-05-05T00:28:04.314Z,81.80
2023-05-05T00:33:09.746Z,82.80
2023-05-05T00:38:14.113Z,82.20
2023-05-05T00:43:19.032Z,81.80
2023-05-05T00:48:25.714Z,81.50
2023-05-05T00:53:30.978Z,81.30
2023-05-05T00:58:35.779Z,81.40
2023-05-05T01:03:42.423Z,81.30
2023-05-05T01:09:01.754Z,82.20
2023-05-05T01:14:15.917Z,82.20
2023-05-05T01:19:52.173Z,83.40
2023-05-05T01:25:22.335Z,84.60
2023-05-05T01:31:03.228Z,83.80
2023-05-05T01:36:13.780Z,83.90
2023-05-05T01:41:24.214Z,83.60
2023-05-05T01:46:29.289Z,84.00
2023-05-05T01:51:35.574Z,84.20
2023-05-05T01:56:42.770Z,84.70
2023-05-05T02:01:48.726Z,85.30
2023-05-05T02:06:55.651Z,85.30
2023-05-05T02:12:00.800Z,86.30
2023-05-05T02:17:05.604Z,90.70
2023-05-05T02:22:12.340Z,87.40
2023-05-05T02:27:19.361Z,87.00
2023-05-05T02:32:29.494Z,87.60
2023-05-05T02:37:37.144Z,88.40
2023-05-05T02:42:44.557Z,88.20
2023-05-05T02:47:50.009Z,89.10
2023-05-05T02:52:55.793Z,89.10
2023-05-05T02:58:09.700Z,90.40
2023-05-05T03:03:26.355Z,90.40
2023-05-05T03:08:42.196Z,90.40
2023-05-05T03:13:48.759Z,91.00
2023-05-05T03:18:59.501Z,90.80
2023-05-05T03:24:16.171Z,91.70
2023-05-05T03:29:23.588Z,92.70
2023-05-05T03:34:27.745Z,92.00
2023-05-05T03:39:33.432Z,92.70
2023-05-05T03:44:38.025Z,93.10
2023-05-05T03:49:42.692Z,93.30
2023-05-05T03:54:48.167Z,93.00
2023-05-05T03:59:52.343Z,93.30
2023-05-05T04:04:58.213Z,93.50
2023-05-05T04:10:03.867Z,94.00
2023-05-05T04:15:09.545Z,94.60
2023-05-05T04:20:14.405Z,94.00
2023-05-05T04:25:20.079Z,94.30
2023-05-05T04:30:25.625Z,94.50
2023-05-05T04:35:29.852Z,94.80
2023-05-05T04:40:41.025Z,95.50
2023-05-05T04:45:54.701Z,95.40
2023-05-05T04:51:06.702Z,95.70
2023-05-05T04:56:13.050Z,95.60
2023-05-05T05:01:17.499Z,95.90
2023-05-05T05:06:21.604Z,95.30
2023-05-05T05:11:27.665Z,96.50
2023-05-05T05:16:32.284Z,95.80
2023-05-05T05:21:36.486Z,95.60
2023-05-05T05:26:42.279Z,95.50
2023-05-05T05:31:46.621Z,96.00
2023-05-05T05:36:51.355Z,95.80
2023-05-05T05:41:57.192Z,96.20
2023-05-05T05:47:01.411Z,96.80
2023-05-05T05:52:06.417Z,96.30
2023-05-05T05:57:12.145Z,96.70
2023-05-05T06:02:16.528Z,97.70
2023-05-05T06:07:21.424Z,98.20
2023-05-05T06:12:26.987Z,97.40
2023-05-05T06:17:31.251Z,97.50
2023-05-05T06:22:35.614Z,97.60
2023-05-05T06:27:41.297Z,97.70
2023-05-05T06:32:45.424Z,98.20
2023-05-05T06:37:49.486Z,98.60
2023-05-05T06:42:54.826Z,98.40
2023-05-05T06:48:04.274Z,98.70
2023-05-05T06:53:08.452Z,98.70
2023-05-05T06:58:13.931Z,98.80
2023-05-05T07:03:18.300Z,99.00
2023-05-05T07:08:22.708Z,99.20
2023-05-05T07:13:28.184Z,99.00
2023-05-05T07:18:32.272Z,99.80
2023-05-05T07:23:37.943Z,99.50
2023-05-05T07:28:44.759Z,99.00
2023-05-05T07:33:49.551Z,99.40
2023-05-05T07:38:53.709Z,99.10
2023-05-05T07:43:59.930Z,99.50
2023-05-05T07:49:04.630Z,99.30
2023-05-05T07:54:08.609Z,99.20
2023-05-05T07:59:14.080Z,99.40
2023-05-05T08:04:18.207Z,99.60
2023-05-05T08:09:22.328Z,99.20
2023-05-05T08:14:27.745Z,99.30
2023-05-05T08:19:31.829Z,99.00
2023-05-05T08:24:36.211Z,98.90
2023-05-05T08:29:41.650Z,99.20
2023-05-05T08:34:46.026Z,99.20
2023-05-05T08:39:50.090Z,98.70
2023-05-05T08:44:56.847Z,98.90
2023-05-05T08:50:02.528Z,98.70
2023-05-05T08:55:15.771Z,98.30
2023-05-05T09:00:22.799Z,98.30
2023-05-05T09:05:27.802Z,98.20
2023-05-05T09:10:33.672Z,98.40
2023-05-05T09:15:41.437Z,98.60
2023-05-05T09:20:45.719Z,98.70
2023-05-05T09:26:05.211Z,98.70
2023-05-05T09:31:17.086Z,98.80
2023-05-05T09:36:22.888Z,99.20
2023-05-05T09:41:39.105Z,99.00
2023-05-05T09:46:52.416Z,99.30
2023-05-05T09:51:56.799Z,99.30
2023-05-05T09:57:00.834Z,99.00
2023-05-05T10:02:14.470Z,99.70
2023-05-05T10:07:25.456Z,99.90
2023-05-05T10:12:31.290Z,99.90
2023-05-05T10:17:39.266Z,99.90
2023-05-05T10:22:52.349Z,99.90
2023-05-05T10:28:00.875Z,99.90
2023-05-05T10:33:30.976Z,99.90
2023-05-05T10:38:37.289Z,99.90
2023-05-05T10:43:41.874Z,99.90
2023-05-05T10:48:57.722Z,99.90
2023-05-05T10:54:11.541Z,99.90
2023-05-05T10:59:43.938Z,99.90
2023-05-05T11:05:15.172Z,99.90
2023-05-05T11:10:20.970Z,99.90
2023-05-05T11:15:37.786Z,99.90
2023-05-05T11:21:18.269Z,99.90
2023-05-05T11:26:51.212Z,99.90
2023-05-05T11:32:15.550Z,99.90
2023-05-05T11:37:25.098Z,99.90
2023-05-05T11:42:30.326Z,99.90
2023-05-05T11:47:34.523Z,99.90
2023-05-05T11:52:39.900Z,99.90
2023-05-05T11:57:43.936Z,99.90
2023-05-05T12:02:48.184Z,99.90
2023-05-05T12:07:59.501Z,99.90
2023-05-05T12:13:03.760Z,99.90
2023-05-05T12:18:19.110Z,99.90
2023-05-05T12:23:27.381Z,99.90
2023-05-05T12:28:45.349Z,99.90
2023-05-05T12:33:50.468Z,99.90
2023-05-05T12:38:55.936Z,99.90
2023-05-05T12:44:01.618Z,99.90
2023-05-05T12:49:07.519Z,99.90
2023-05-05T12:54:13.406Z,99.90
2023-05-05T12:59:31.067Z,99.90
2023-05-05T13:04:35.665Z,99.90
2023-05-05T13:09:41.348Z,99.90
2023-05-05T13:14:46.561Z,99.90
2023-05-05T13:19:51.037Z,99.90
2023-05-05T13:24:56.537Z,99.90
2023-05-05T13:30:00.657Z,99.90
2023-05-05T13:35:05.005Z,99.90
2023-05-05T13:40:13.682Z,99.90
2023-05-05T13:45:19.706Z,99.90
2023-05-05T13:50:24.056Z,99.90
2023-05-05T13:55:31.431Z,99.90
2023-05-05T14:00:35.622Z,99.90
2023-05-05T14:05:42.867Z,99.90
2023-05-05T14:10:49.557Z,99.90
2023-05-05T14:15:54.854Z,99.90
2023-05-05T14:20:58.937Z,99.90
2023-05-05T14:26:04.468Z,99.90
2023-05-05T14:31:08.728Z,99.90
2023-05-05T14:36:14.267Z,99.90
2023-05-05T14:41:19.692Z,99.90
2023-05-05T14:46:24.084Z,99.90
2023-05-05T14:51:28.630Z,99.90
2023-05-05T14:56:34.177Z,99.90
2023-05-05T15:01:38.336Z,99.90
2023-05-05T15:06:42.270Z,99.90
2023-05-05T15:11:47.710Z,99.90
2023-05-05T15:16:51.741Z,99.90
2023-05-05T15:21:55.927Z,99.90
2023-05-05T15:27:01.598Z,99.90
2023-05-05T15:32:06.362Z,99.90
2023-05-05T15:37:10.400Z,99.90
2023-05-05T15:42:15.851Z,99.90
2023-05-05T15:47:20.039Z,99.90
2023-05-05T15:52:24.083Z,99.90
2023-05-05T15:57:29.483Z,99.90
2023-05-05T16:02:33.628Z,99.90
2023-05-05T16:07:37.703Z,99.90
2023-05-05T16:12:43.126Z,99.90
2023-05-05T16:17:47.626Z,99.90
2023-05-05T16:22:51.725Z,99.90
2023-05-05T16:27:57.647Z,99.90
2023-05-05T16:33:01.737Z,99.90
2023-05-05T16:38:06.073Z,99.90
2023-05-05T16:43:11.490Z,99.90
2023-05-05T16:48:17.582Z,99.90
2023-05-05T16:53:21.814Z,99.90
2023-05-05T16:58:27.541Z,99.90
2023-05-05T17:03:31.735Z,99.90
2023-05-05T17:08:35.796Z,99.90
2023-05-05T17:13:41.275Z,99.90
2023-05-05T17:18:45.538Z,99.90
2023-05-05T17:23:49.619Z,99.90
2023-05-05T17:28:55.083Z,99.90
2023-05-05T17:33:59.107Z,99.90
2023-05-05T17:39:03.199Z,99.90
2023-05-05T17:44:08.809Z,99.90
2023-05-05T17:49:12.829Z,99.90
2023-05-05T17:54:16.901Z,99.90
2023-05-05T17:59:22.819Z,99.90
2023-05-05T18:04:27.026Z,99.90
2023-05-05T18:09:31.217Z,99.90
2023-05-05T18:14:36.816Z,99.90
2023-05-05T18:19:45.656Z,99.90
2023-05-05T18:24:51.361Z,99.90
2023-05-05T18:29:57.104Z,99.90
2023-05-05T18:35:01.236Z,99.90
2023-05-05T18:40:07.070Z,99.90
2023-05-05T18:45:13.344Z,99.90
2023-05-05T18:50:17.335Z,99.90
2023-05-05T18:55:21.903Z,99.90
2023-05-05T19:00:27.314Z,99.90
2023-05-05T19:05:31.488Z,99.90
2023-05-05T19:10:35.893Z,99.90
2023-05-05T19:15:41.820Z,99.90
2023-05-05T19:20:45.886Z,99.90
2023-05-05T19:25:52.799Z,99.90
2023-05-05T19:30:57.997Z,99.90
2023-05-05T19:36:02.977Z,99.90
2023-05-05T19:41:06.986Z,99.90
2023-05-05T19:46:12.486Z,99.90
2023-05-05T19:51:16.633Z,99.90
2023-05-05T19:56:21.681Z,99.90
2023-05-05T20:01:28.352Z,99.90
2023-05-05T20:06:32.740Z,99.90
2023-05-05T20:11:36.926Z,99.90
2023-05-05T20:16:42.401Z,99.90
2023-05-05T20:21:46.410Z,99.90
2023-05-05T20:26:50.739Z,99.90
2023-05-05T20:31:56.480Z,99.90
2023-05-05T20:37:00.559Z,99.90
2023-05-05T20:42:04.905Z,99.90
2023-05-05T20:47:11.979Z,99.90
2023-05-05T20:52:16.514Z,99.90
2023-05-05T20:57:20.590Z,99.90
2023-05-05T21:02:27.785Z,99.90
2023-05-05T21:07:34.230Z,99.90
2023-05-05T21:12:39.109Z,99.90
2023-05-05T21:17:48.232Z,99.90
2023-05-05T21:22:56.428Z,99.90
2023-05-05T21:28:00.957Z,99.90
2023-05-05T21:33:06.855Z,99.90
2023-05-05T21:38:11.630Z,99.90
2023-05-05T21:43:16.194Z,99.90
2023-05-05T21:48:22.040Z,99.90
2023-05-05T21:53:26.895Z,99.90
2023-05-05T21:58:31.634Z,99.90
2023-05-05T22:03:38.025Z,99.90
2023-05-05T22:08:42.873Z,99.90
2023-05-05T22:13:48.094Z,99.90
2023-05-05T22:18:54.304Z,99.90
2023-05-05T22:23:58.974Z,99.90
2023-05-05T22:29:03.749Z,99.90
2023-05-05T22:34:10.125Z,99.90
2023-05-05T22:39:14.890Z,99.90
2023-05-05T22:44:19.021Z,99.90
2023-05-05T22:49:24.560Z,99.90
2023-05-05T22:54:28.756Z,99.90
2023-05-05T22:59:33.057Z,99.90
2023-05-05T23:04:38.565Z,99.90
2023-05-05T23:09:42.744Z,99.90
2023-05-05T23:14:46.901Z,99.90
2023-05-05T23:19:52.463Z,99.90
2023-05-05T23:24:56.724Z,99.90
2023-05-05T23:30:01.450Z,99.90
2023-05-05T23:35:08.476Z,99.90
2023-05-05T23:40:12.900Z,99.90
2023-05-05T23:45:19.212Z,99.90
2023-05-05T23:50:25.825Z,99.90
2023-05-05T23:55:30.063Z,99.90
